Time;durP1;ratioP1;P1;durP2;ratioP2;P2;SDS_P1;SDS_P2;PMS_P1;PMS_P2;Temp;Humidity;BMP_temperature;BMP_pressure;BME280_temperature;BME280_humidity;BME280_pressure;Samples;Min_cycle;Max_cycle;Signal;HPM_P1;HPM_P2
2022/07/29 00:01:43;;;;;;;4.50;3.43;;;15.20;81.80;;;15.17;64.46;101424.09;5032627;28;21051;-74
2022/07/29 00:04:13;;;;;;;9.97;3.80;;;15.10;84.80;;;15.14;64.79;101421.00;5050115;28;20472;-73
2022/07/29 00:06:42;;;;;;;5.77;4.27;;;15.10;87.70;;;15.27;64.51;101428.25;5051179;28;20442;-73
2022/07/29 00:09:12;;;;;;;3.53;2.77;;;15.20;89.80;;;15.28;64.67;101424.47;5054007;28;20410;-73
2022/07/29 00:11:40;;;;;;;3.00;2.70;;;15.20;90.40;;;15.21;64.83;101422.59;5031446;28;20721;-75
2022/07/29 00:14:13;;;;;;;4.90;3.50;;;15.20;91.00;;;15.19;64.98;101423.91;5038242;28;20562;-75
2022/07/29 00:16:43;;;;;;;5.23;2.87;;;15.10;91.60;;;15.06;65.56;101426.69;5042029;28;20415;-75
2022/07/29 00:19:12;;;;;;;7.53;3.80;;;15.10;93.40;;;15.17;65.37;101426.84;5069628;28;20452;-75
2022/07/29 00:21:41;;;;;;;6.17;3.70;;;15.00;94.70;;;15.08;65.58;101430.88;5068192;28;20454;-75
2022/07/29 00:24:10;;;;;;;8.83;3.60;;;15.00;95.20;;;15.13;65.62;101425.59;5070217;28;20463;-75
2022/07/29 00:26:38;;;;;;;4.40;3.63;;;15.00;95.30;;;15.10;65.93;101420.56;5060930;28;20439;-74
2022/07/29 00:29:07;;;;;;;5.50;3.20;;;15.00;96.20;;;15.06;65.90;101419.34;5050497;28;20640;-75
2022/07/29 00:31:57;;;;;;;5.77;4.30;;;15.00;96.50;;;15.04;65.93;101416.03;5048360;28;20435;-75
2022/07/29 00:37:13;;;;;;;3.83;3.07;;;15.00;97.10;;;15.02;66.20;101409.94;5033408;28;20426;-75
2022/07/29 00:39:42;;;;;;;4.90;3.97;;;14.90;97.40;;;15.02;66.36;101409.09;5050220;28;20439;-74
2022/07/29 00:42:11;;;;;;;4.40;3.73;;;14.90;97.90;;;14.97;66.50;101403.47;5047930;28;20443;-75
2022/07/29 00:44:40;;;;;;;4.40;2.90;;;14.90;98.50;;;14.93;66.70;101399.50;5046543;28;20447;-75
2022/07/29 00:47:12;;;;;;;4.63;3.97;;;14.80;99.10;;;14.82;67.14;101398.31;5048846;28;20435;-75
2022/07/29 00:49:43;;;;;;;6.83;4.10;;;14.80;99.70;;;14.74;67.60;101401.31;5049739;28;20439;-75
2022/07/29 00:52:13;;;;;;;4.83;4.10;;;14.70;99.90;;;14.66;67.91;101410.56;5047432;28;20801;-73
2022/07/29 00:54:45;;;;;;;5.47;3.70;;;14.70;99.90;;;14.66;67.88;101399.66;5043517;28;20807;-74
2022/07/29 00:57:14;;;;;;;4.00;3.60;;;14.60;99.90;;;14.75;67.77;101405.69;5046861;28;20431;-75
2022/07/29 00:59:43;;;;;;;4.40;3.10;;;14.70;99.90;;;14.72;67.97;101397.94;5045824;28;20432;-75
2022/07/29 01:02:13;;;;;;;4.53;3.57;;;14.70;99.90;;;14.69;68.10;101390.22;5041498;28;20450;-74
2022/07/29 01:04:42;;;;;;;5.87;3.67;;;14.60;99.90;;;14.73;67.92;101394.16;5058562;28;20527;-75
2022/07/29 01:07:12;;;;;;;3.97;3.63;;;14.60;99.90;;;14.57;68.77;101394.69;5046002;28;20493;-74
2022/07/29 01:09:43;;;;;;;5.83;3.97;;;14.60;99.90;;;14.62;68.45;101397.59;5046719;28;20442;-75
2022/07/29 01:12:19;;;;;;;5.43;3.67;;;14.60;99.90;;;14.51;68.73;101392.81;5042082;28;20439;-73
2022/07/29 01:14:51;;;;;;;9.80;3.50;;;14.50;99.90;;;14.51;69.15;101392.81;5052666;28;20931;-75
2022/07/29 01:17:27;;;;;;;2.80;2.50;;;14.50;99.90;;;14.49;69.38;101389.47;5059113;28;20477;-72
2022/07/29 01:20:05;;;;;;;5.77;3.60;;;14.40;99.90;;;14.43;69.45;101387.59;5035440;28;20434;-73
2022/07/29 01:23:05;;;;;;;4.30;3.60;;;14.40;99.90;;;14.39;69.95;101386.34;5043660;28;20449;-74
2022/07/29 01:26:04;;;;;;;4.57;4.17;;;14.40;99.90;;;14.39;70.17;101380.91;5045345;28;20913;-76
2022/07/29 01:29:04;;;;;;;5.30;3.83;;;14.40;99.90;;;14.33;70.15;101375.25;5045143;28;20751;-74
2022/07/29 01:31:46;;;;;;;3.87;3.17;;;14.30;99.90;;;14.43;70.06;101365.81;5050279;28;20439;-74
2022/07/29 01:34:46;;;;;;;6.30;3.67;;;14.40;99.90;;;14.40;70.15;101360.81;5044351;28;20442;-74
2022/07/29 01:37:21;;;;;;;4.70;3.60;;;14.30;99.90;;;14.26;70.93;101362.72;5047370;28;20485;-72
2022/07/29 01:39:57;;;;;;;3.63;3.33;;;14.30;99.90;;;14.25;70.65;101353.72;5042252;28;20441;-75
2022/07/29 01:42:36;;;;;;;5.37;3.33;;;14.30;99.90;;;14.23;70.77;101355.81;5046631;28;20478;-74
2022/07/29 01:45:15;;;;;;;4.83;3.10;;;14.20;99.90;;;14.20;71.03;101348.06;5045886;28;20430;-74
2022/07/29 01:47:54;;;;;;;7.80;3.50;;;14.20;99.90;;;14.15;71.19;101322.56;5050743;28;20537;-74
2022/07/29 01:50:32;;;;;;;7.00;3.30;;;14.10;99.90;;;14.14;71.24;101320.88;5051713;28;20467;-72
2022/07/29 01:53:06;;;;;;;10.83;3.73;;;14.10;99.90;;;14.19;71.21;101315.63;5048305;28;20465;-72
2022/07/29 01:55:41;;;;;;;8.20;4.73;;;14.10;99.90;;;14.07;71.80;101312.75;5053844;28;21020;-75
2022/07/29 01:58:13;;;;;;;6.73;3.83;;;14.10;99.90;;;14.07;71.75;101312.75;5050488;28;20500;-74
2022/07/29 02:00:47;;;;;;;3.57;3.27;;;14.00;99.90;;;14.08;71.60;101308.16;5049040;28;20525;-74
2022/07/29 02:03:19;;;;;;;3.90;3.40;;;14.00;99.90;;;13.99;72.06;101299.38;5054636;28;20535;-72
2022/07/29 02:05:52;;;;;;;5.33;3.33;;;14.00;99.90;;;13.99;72.16;101310.25;5048662;28;21192;-74
2022/07/29 02:08:23;;;;;;;6.33;3.17;;;13.90;99.90;;;14.03;71.95;101300.63;5054819;28;20993;-73
2022/07/29 02:10:54;;;;;;;4.27;3.63;;;13.90;99.90;;;14.11;71.92;101313.16;5052043;28;20525;-72
2022/07/29 02:13:27;;;;;;;5.63;3.47;;;14.00;99.90;;;14.05;71.98;101309.41;5054234;28;20450;-74
2022/07/29 02:15:59;;;;;;;5.50;3.17;;;14.00;99.90;;;14.02;72.11;101298.13;5050474;28;20525;-73
2022/07/29 02:18:31;;;;;;;4.83;2.70;;;14.00;99.90;;;13.92;72.57;101309.44;5049581;28;20446;-74
2022/07/29 02:21:03;;;;;;;4.57;3.00;;;13.90;99.90;;;13.94;72.79;101310.91;5054904;28;20497;-73
2022/07/29 02:23:36;;;;;;;4.77;3.37;;;13.90;99.90;;;13.98;72.21;101308.59;5047302;28;20525;-73
2022/07/29 02:26:21;;;;;;;3.73;3.07;;;13.90;99.90;;;13.98;72.60;101322.22;5053393;28;20450;-73
2022/07/29 02:28:53;;;;;;;6.07;4.30;;;13.90;99.90;;;13.90;72.75;101322.41;5032487;28;20482;-74
2022/07/29 02:31:30;;;;;;;5.60;3.30;;;13.90;99.90;;;13.87;72.89;101317.41;5051839;28;20865;-74
2022/07/29 02:34:02;;;;;;;5.30;3.40;;;13.80;99.90;;;13.84;73.09;101323.28;5046479;28;20458;-74
2022/07/29 02:36:34;;;;;;;5.97;2.90;;;13.80;99.90;;;13.95;72.76;101322.63;5051549;28;20738;-73
2022/07/29 02:39:04;;;;;;;9.13;3.80;;;13.90;99.90;;;13.96;72.78;101320.72;5057574;28;20537;-74
2022/07/29 02:41:45;;;;;;;7.13;3.40;;;13.90;99.90;;;13.88;73.02;101314.50;5057774;28;20517;-74
2022/07/29 02:44:16;;;;;;;5.27;3.27;;;13.80;99.90;;;13.89;72.75;101320.78;5059604;28;20441;-72
2022/07/29 02:46:54;;;;;;;4.63;3.30;;;13.90;99.90;;;13.94;72.75;101319.06;5051523;28;20537;-74
2022/07/29 02:49:36;;;;;;;3.53;2.87;;;13.80;99.90;;;14.03;72.38;101316.97;5051015;28;20530;-72
2022/07/29 02:52:10;;;;;;;3.80;2.50;;;13.90;99.90;;;14.17;72.03;101323.19;5049478;28;20431;-73
2022/07/29 02:54:47;;;;;;;5.20;3.03;;;14.00;99.90;;;14.13;71.92;101328.22;5050788;28;20475;-73
2022/07/29 02:57:35;;;;;;;3.50;2.53;;;14.00;99.90;;;14.21;71.63;101325.25;5050024;28;20529;-72
2022/07/29 03:00:27;;;;;;;3.50;2.70;;;14.00;99.90;;;14.28;71.27;101319.78;5048831;28;20442;-74
2022/07/29 03:03:03;;;;;;;6.73;3.30;;;14.20;99.90;;;14.25;71.20;101321.06;5049319;28;20589;-74
2022/07/29 03:05:33;;;;;;;4.97;2.60;;;14.20;99.90;;;14.24;71.28;101313.94;5047347;28;20470;-74
2022/07/29 03:08:06;;;;;;;7.33;3.10;;;14.20;99.90;;;14.30;71.10;101320.41;5050888;28;20501;-73
2022/07/29 03:10:38;;;;;;;4.30;3.37;;;14.20;99.90;;;14.35;70.95;101315.13;5052452;28;20439;-74
2022/07/29 03:13:08;;;;;;;5.67;3.27;;;14.20;99.90;;;14.38;70.64;101320.16;5049130;28;20973;-74
2022/07/29 03:15:39;;;;;;;3.37;2.93;;;14.20;99.90;;;14.38;70.67;101313.94;5046292;28;20490;-73
2022/07/29 03:18:10;;;;;;;4.50;2.57;;;14.20;99.90;;;14.31;71.01;101313.91;5051336;28;20482;-74
2022/07/29 03:20:40;;;;;;;4.90;2.20;;;14.20;99.90;;;14.48;70.41;101315.09;5045887;28;20435;-74
2022/07/29 03:23:09;;;;;;;6.50;2.87;;;14.30;99.90;;;14.38;70.84;101322.09;5051915;28;20486;-74
2022/07/29 03:25:38;;;;;;;3.03;2.70;;;14.30;99.90;;;14.34;70.73;101311.59;5047450;28;20467;-73
2022/07/29 03:28:08;;;;;;;4.20;3.10;;;14.30;99.90;;;14.38;70.91;101312.00;5050214;28;20443;-73
2022/07/29 03:30:37;;;;;;;4.63;2.80;;;14.30;99.90;;;14.30;70.97;101306.78;5046372;28;20451;-74
2022/07/29 03:33:06;;;;;;;12.50;3.53;;;14.20;99.90;;;14.31;70.80;101309.31;5048869;28;20746;-74
2022/07/29 03:35:43;;;;;;;6.43;2.73;;;14.20;99.90;;;14.31;71.09;101303.03;5044180;28;20438;-73
2022/07/29 03:38:11;;;;;;;6.33;3.27;;;14.20;99.90;;;14.37;70.63;101307.63;5045318;28;20452;-74
2022/07/29 03:40:49;;;;;;;6.03;3.63;;;14.20;99.90;;;14.44;70.50;101302.13;5048983;28;20458;-74
2022/07/29 03:43:21;;;;;;;6.73;3.23;;;14.30;99.90;;;14.38;70.48;101292.94;5045476;28;20562;-73
2022/07/29 03:45:56;;;;;;;5.17;3.47;;;14.30;99.90;;;14.44;70.52;101296.69;5044660;28;20418;-74
2022/07/29 03:48:29;;;;;;;4.43;3.47;;;14.30;99.90;;;14.51;70.11;101292.91;5044657;28;20446;-72
2022/07/29 03:50:59;;;;;;;3.70;2.57;;;14.30;99.90;;;14.59;70.03;101283.63;5048169;28;20864;-73
2022/07/29 03:53:28;;;;;;;4.60;2.63;;;14.40;99.90;;;14.82;68.96;101291.22;5046541;28;20694;-73
2022/07/29 03:56:03;;;;;;;4.23;3.50;;;14.50;99.90;;;14.69;69.19;101292.16;5046292;28;20422;-74
2022/07/29 03:58:34;;;;;;;4.70;2.53;;;14.50;99.90;;;14.67;69.34;101286.06;5046228;28;20451;-72
2022/07/29 04:01:04;;;;;;;5.33;2.90;;;14.50;99.90;;;14.59;69.48;101291.78;5046895;28;20571;-73
2022/07/29 04:03:33;;;;;;;3.60;2.83;;;14.50;99.90;;;14.56;69.81;101290.34;5050325;28;20548;-74
2022/07/29 04:06:07;;;;;;;3.67;2.87;;;14.50;99.90;;;14.54;69.90;101294.34;5030160;28;20451;-74
2022/07/29 04:08:36;;;;;;;3.07;2.63;;;14.40;99.90;;;14.55;69.99;101293.28;5048963;28;20459;-74
2022/07/29 04:11:06;;;;;;;6.23;2.70;;;14.40;99.90;;;14.64;69.43;101295.53;5046905;28;20451;-73
2022/07/29 04:13:36;;;;;;;4.17;2.90;;;14.50;99.90;;;14.67;69.48;101305.13;5050820;28;20524;-74
2022/07/29 04:16:05;;;;;;;3.20;2.90;;;14.50;99.90;;;14.67;69.38;101294.25;5043478;28;20504;-73
2022/07/29 04:18:34;;;;;;;3.77;3.30;;;14.50;99.90;;;14.83;68.93;101307.34;5036717;28;20554;-74
2022/07/29 04:21:05;;;;;;;5.10;3.00;;;14.60;99.90;;;14.84;68.49;101298.13;5050172;28;20424;-73
2022/07/29 04:23:34;;;;;;;4.23;3.40;;;14.60;99.90;;;14.86;68.46;101306.94;5049702;28;20471;-74
2022/07/29 04:26:21;;;;;;;6.30;2.90;;;14.70;99.90;;;15.07;68.02;101316.59;5047246;28;20434;-74
2022/07/29 04:28:50;;;;;;;8.47;2.80;;;14.70;99.90;;;15.17;67.30;101316.94;5055358;28;20438;-73
2022/07/29 04:31:18;;;;;;;6.73;3.67;;;14.80;99.90;;;15.62;66.14;101304.00;5059346;28;20452;-74
2022/07/29 04:33:53;;;;;;;4.47;3.03;;;15.00;99.90;;;16.20;63.76;101306.28;5058803;28;20453;-72
2022/07/29 04:36:23;;;;;;;2.63;2.30;;;15.40;98.40;;;16.31;62.95;101302.78;5057641;28;20438;-72
2022/07/29 04:38:57;;;;;;;4.80;3.50;;;15.70;94.50;;;15.89;64.35;101308.09;5081715;22;20551;-72
2022/07/29 04:41:26;;;;;;;4.03;2.97;;;15.60;93.50;;;15.75;64.93;101311.19;5051483;28;20409;-73
2022/07/29 04:44:04;;;;;;;8.20;3.97;;;15.60;93.90;;;15.81;64.60;101307.56;5063984;28;20557;-72
2022/07/29 04:46:39;;;;;;;4.50;3.40;;;15.50;94.60;;;15.88;64.79;101308.31;5047251;28;20429;-72
2022/07/29 04:49:08;;;;;;;4.13;3.47;;;15.40;95.10;;;16.19;63.75;101310.06;5046568;28;20538;-72
2022/07/29 04:51:51;;;;;;;4.73;2.80;;;15.60;94.20;;;16.26;63.08;101313.56;5047932;28;20500;-71
2022/07/29 04:54:20;;;;;;;3.30;2.97;;;15.80;91.70;;;16.06;63.78;101314.63;5005609;28;20446;-70
2022/07/29 04:56:48;;;;;;;5.67;3.33;;;15.80;91.60;;;16.00;64.04;101312.81;5007430;28;20416;-72
2022/07/29 04:59:20;;;;;;;4.67;2.97;;;15.70;92.10;;;15.90;64.51;101317.97;5011165;28;20431;-70
2022/07/29 05:01:49;;;;;;;4.53;3.03;;;15.60;92.50;;;15.92;64.53;101317.75;5005610;28;20465;-71
2022/07/29 05:04:18;;;;;;;5.10;3.10;;;15.70;92.70;;;15.94;64.56;101310.97;5005379;28;20991;-71
2022/07/29 05:06:48;;;;;;;3.63;2.90;;;15.70;92.90;;;15.95;64.14;101307.19;5005498;28;20478;-70
2022/07/29 05:09:18;;;;;;;4.13;3.13;;;15.80;92.00;;;16.01;64.44;101300.84;5007472;28;20449;-70
2022/07/29 05:11:47;;;;;;;6.60;3.30;;;15.80;92.60;;;16.34;63.50;101307.78;5007574;28;20435;-70
2022/07/29 05:14:16;;;;;;;4.37;2.97;;;15.90;91.30;;;16.94;61.49;101308.63;5007341;28;20457;-71
2022/07/29 05:16:46;;;;;;;4.30;3.30;;;16.20;87.60;;;17.53;59.67;101315.81;5007134;28;20454;-71
2022/07/29 05:19:14;;;;;;;4.17;2.43;;;16.50;81.40;;;18.12;58.12;101314.72;5008639;28;20431;-70
2022/07/29 05:21:45;;;;;;;3.73;3.13;;;17.00;69.50;;;18.20;56.96;101308.06;5010606;28;20922;-70
2022/07/29 05:24:14;;;;;;;5.40;3.37;;;17.40;57.50;;;17.86;57.93;101301.56;5009407;28;20960;-71
2022/07/29 05:26:45;;;;;;;3.30;2.90;;;17.50;53.90;;;18.18;57.08;101308.28;5007515;28;20820;-70
2022/07/29 05:29:14;;;;;;;5.63;3.47;;;17.40;53.40;;;18.39;56.16;101304.06;5011394;28;20400;-72
2022/07/29 05:32:03;;;;;;;4.43;3.10;;;17.60;50.20;;;18.24;56.85;101303.75;5010538;28;20422;-71
2022/07/29 05:34:32;;;;;;;5.03;3.50;;;17.40;51.10;;;17.64;58.10;101301.34;4994618;28;20452;-70
2022/07/29 05:37:00;;;;;;;5.80;3.07;;;17.40;49.20;;;17.36;58.97;101293.00;5010716;28;20466;-71
2022/07/29 05:39:29;;;;;;;4.03;3.20;;;17.20;49.90;;;17.27;59.58;101300.72;5009585;28;20665;-71
2022/07/29 05:42:18;;;;;;;4.77;3.07;;;17.10;51.70;;;17.22;59.83;101302.50;5006315;28;20415;-71
2022/07/29 05:44:47;;;;;;;6.20;3.40;;;17.00;53.30;;;17.12;60.11;101296.75;5011597;28;20419;-71
2022/07/29 05:47:15;;;;;;;3.40;2.73;;;16.90;53.80;;;17.20;60.08;101293.69;5008240;28;21229;-71
2022/07/29 05:49:45;;;;;;;7.33;3.23;;;16.90;55.60;;;17.26;59.98;101287.28;5010992;28;20544;-71
2022/07/29 05:52:14;;;;;;;4.87;3.30;;;16.90;55.50;;;17.10;60.62;101298.88;5010650;28;20951;-70
2022/07/29 05:54:43;;;;;;;9.43;3.90;;;16.80;56.40;;;17.22;60.06;101294.28;5010282;28;20829;-71
2022/07/29 05:57:18;;;;;;;4.90;3.23;;;16.90;56.90;;;17.31;59.91;101306.53;5007627;28;20408;-72
2022/07/29 05:59:47;;;;;;;3.80;3.50;;;17.00;56.30;;;17.42;59.92;101300.25;5007534;28;20399;-72
2022/07/29 06:02:20;;;;;;;4.50;2.83;;;17.00;56.50;;;17.39;59.24;101297.97;5010160;28;20861;-71
2022/07/29 06:04:49;;;;;;;4.67;3.57;;;17.20;52.90;;;17.47;59.28;101305.84;4996383;28;20419;-71
2022/07/29 06:07:18;;;;;;;6.70;3.73;;;17.20;52.80;;;17.68;58.83;101309.91;5010765;28;20441;-73
2022/07/29 06:09:46;;;;;;;4.13;2.97;;;17.40;52.00;;;17.84;58.33;101305.59;5011836;28;20434;-71
2022/07/29 06:12:16;;;;;;;4.23;3.83;;;17.50;50.00;;;18.12;57.60;101309.25;5011256;28;20419;-71
2022/07/29 06:14:45;;;;;;;5.47;3.57;;;17.60;48.60;;;18.34;56.84;101312.19;5013091;28;20809;-72
2022/07/29 06:17:19;;;;;;;7.67;3.20;;;17.70;47.00;;;18.58;56.31;101313.78;5010994;28;20892;-71
2022/07/29 06:19:48;;;;;;;3.77;2.83;;;18.00;45.30;;;18.72;55.91;101308.00;5012854;28;20842;-71
2022/07/29 06:22:17;;;;;;;6.70;2.93;;;18.20;42.90;;;18.96;55.15;101304.88;5010780;28;20502;-71
2022/07/29 06:24:46;;;;;;;4.30;3.70;;;18.50;40.00;;;19.28;54.43;101301.56;5010561;28;20874;-71
2022/07/29 06:27:16;;;;;;;5.83;4.13;;;18.70;38.20;;;19.35;53.54;101294.00;5011423;28;20701;-71
2022/07/29 06:29:46;;;;;;;3.87;3.43;;;19.00;34.20;;;19.33;53.88;101288.75;5013795;28;20872;-71
2022/07/29 06:32:15;;;;;;;6.00;3.17;;;19.00;33.30;;;19.34;53.57;101300.56;5006642;28;20435;-71
2022/07/29 06:34:44;;;;;;;4.67;3.23;;;18.90;32.20;;;19.37;53.21;101295.41;4996420;28;20820;-72
2022/07/29 06:37:17;;;;;;;3.40;3.13;;;18.90;30.80;;;19.46;53.07;101302.16;5013415;28;20446;-72
2022/07/29 06:39:47;;;;;;;5.90;3.53;;;18.90;30.30;;;19.59;52.93;101302.91;4996312;28;20748;-71
2022/07/29 06:42:16;;;;;;;4.10;2.70;;;19.00;29.90;;;19.48;52.93;101302.75;5009630;28;20769;-71
2022/07/29 06:44:47;;;;;;;5.10;2.87;;;19.10;28.90;;;19.53;53.02;101300.09;5014176;28;20902;-71
2022/07/29 06:47:16;;;;;;;6.43;3.73;;;19.20;28.90;;;19.53;52.70;101294.59;5014776;28;20415;-71
2022/07/29 06:49:44;;;;;;;3.63;2.87;;;19.20;28.40;;;19.40;53.15;101303.16;5009665;28;20416;-70
2022/07/29 06:52:13;;;;;;;6.63;3.47;;;19.20;28.10;;;19.56;52.81;101301.47;5012325;28;20810;-71
2022/07/29 06:54:47;;;;;;;7.00;3.17;;;19.20;27.90;;;19.56;52.73;101304.22;5012696;28;20476;-71
2022/07/29 06:57:16;;;;;;;4.00;3.27;;;19.20;27.40;;;19.62;52.51;101302.38;5009362;28;20412;-71
2022/07/29 06:59:47;;;;;;;4.80;3.30;;;19.40;27.10;;;19.67;52.58;101307.94;5014042;28;20454;-71
2022/07/29 07:02:16;;;;;;;8.20;3.90;;;19.40;26.60;;;19.67;52.31;101306.03;5009862;28;20446;-71
2022/07/29 07:04:45;;;;;;;4.00;2.40;;;19.40;26.10;;;20.07;51.52;101313.19;5007444;28;20563;-71
2022/07/29 07:07:16;;;;;;;3.90;3.40;;;19.50;25.90;;;20.02;51.29;101313.94;5008520;28;20412;-72
2022/07/29 07:09:45;;;;;;;3.60;2.60;;;19.70;24.90;;;20.16;51.33;101315.22;5005604;28;20875;-71
2022/07/29 07:12:14;;;;;;;3.33;2.53;;;19.80;24.20;;;20.41;50.51;101316.66;5010559;28;20810;-71
2022/07/29 07:14:43;;;;;;;6.17;3.50;;;19.90;23.80;;;20.54;49.75;101299.75;5010281;28;20434;-71
2022/07/29 07:17:13;;;;;;;4.63;3.23;;;20.00;22.80;;;20.86;48.96;101313.59;5010931;28;20532;-71
2022/07/29 07:19:42;;;;;;;3.60;3.03;;;20.30;22.00;;;21.22;48.69;101316.44;5005340;28;20420;-72
2022/07/29 07:22:11;;;;;;;9.40;3.20;;;20.60;21.10;;;21.41;47.85;101313.25;5004643;28;20504;-71
2022/07/29 07:24:40;;;;;;;6.03;3.20;;;20.90;19.60;;;21.46;47.83;101313.28;5007582;28;20812;-70
2022/07/29 07:27:08;;;;;;;5.63;3.03;;;21.10;18.50;;;21.42;47.78;101306.66;5009929;28;20415;-71
2022/07/29 07:29:40;;;;;;;7.27;3.87;;;21.00;17.70;;;21.52;47.93;101306.75;5008644;28;20433;-71
2022/07/29 07:32:15;;;;;;;4.03;3.13;;;21.00;17.90;;;21.54;47.12;101299.06;5010559;28;20478;-70
2022/07/29 07:34:45;;;;;;;8.33;4.07;;;21.20;17.00;;;21.36;47.74;101307.72;5010326;28;20843;-71
2022/07/29 07:37:14;;;;;;;3.40;2.73;;;21.20;16.50;;;21.56;47.39;101302.34;5008996;28;20448;-71
2022/07/29 07:39:43;;;;;;;3.50;3.17;;;21.30;16.00;;;21.72;46.89;101317.06;4990678;28;20435;-71
2022/07/29 07:42:12;;;;;;;6.10;4.03;;;21.50;15.20;;;21.81;47.10;101302.53;5005771;28;20428;-71
2022/07/29 07:44:41;;;;;;;4.10;3.13;;;21.50;15.00;;;22.29;45.66;101306.91;5008473;28;20477;-71
2022/07/29 07:47:31;;;;;;;4.13;2.10;;;21.80;13.80;;;22.40;45.11;101296.75;5007179;28;20407;-71
2022/07/29 07:50:01;;;;;;;3.80;2.67;;;22.10;12.50;;;22.50;45.18;101302.31;5005737;28;20441;-71
2022/07/29 07:52:30;;;;;;;6.60;3.30;;;22.20;12.60;;;22.67;44.64;101299.28;5008852;28;20880;-72
2022/07/29 07:55:00;;;;;;;4.83;2.60;;;22.30;11.60;;;22.51;44.65;101296.50;5008576;28;20463;-72
2022/07/29 07:57:29;;;;;;;3.30;2.40;;;22.30;10.70;;;22.53;44.80;101296.22;5007541;28;20484;-71
2022/07/29 07:59:59;;;;;;;5.63;2.60;;;22.30;10.70;;;22.47;44.29;101291.78;5002237;28;20427;-70
2022/07/29 08:02:28;;;;;;;4.17;2.60;;;22.30;9.80;;;22.68;43.90;101298.19;5008377;28;20493;-71
2022/07/29 08:04:59;;;;;;;9.33;3.40;;;22.40;9.40;;;22.99;43.47;101299.13;5008532;28;20480;-72
2022/07/29 08:07:29;;;;;;;2.93;2.53;;;22.60;8.90;;;23.24;42.92;101288.06;5007440;28;20523;-71
2022/07/29 08:09:57;;;;;;;2.80;2.20;;;22.90;8.30;;;23.44;42.33;101290.81;5008029;28;20453;-71
2022/07/29 08:12:26;;;;;;;4.23;2.90;;;23.10;7.40;;;23.60;41.89;101284.19;5007636;28;20492;-71
2022/07/29 08:14:55;;;;;;;3.27;2.23;;;23.30;6.60;;;23.82;41.15;101289.38;5007610;28;20411;-71
2022/07/29 08:17:24;;;;;;;5.67;2.80;;;23.50;6.10;;;23.78;40.84;101283.59;5008001;28;20480;-70
2022/07/29 08:19:53;;;;;;;4.70;2.57;;;23.50;4.80;;;23.83;39.96;101294.63;5006220;28;20515;-72
2022/07/29 08:22:23;;;;;;;6.53;2.93;;;23.50;3.70;;;23.73;40.29;101289.13;5006239;28;20454;-71
2022/07/29 08:24:55;;;;;;;2.43;2.20;;;23.40;3.30;;;23.74;40.10;101278.91;5006066;28;20563;-71
2022/07/29 08:27:26;;;;;;;3.03;2.17;;;23.40;3.10;;;23.76;40.23;101288.59;5003128;28;20907;-70
2022/07/29 08:30:12;;;;;;;3.13;2.33;;;23.50;2.90;;;23.64;40.02;101279.75;5003728;28;20412;-71
2022/07/29 08:32:41;;;;;;;3.60;2.73;;;23.50;2.30;;;23.78;40.15;101286.34;5004583;28;20499;-71
2022/07/29 08:35:26;;;;;;;3.90;2.03;;;23.50;2.50;;;23.90;39.67;101275.00;5006589;28;20439;-72
2022/07/29 08:38:03;;;;;;;7.03;2.37;;;23.60;1.70;;;24.22;38.39;101280.13;5009212;28;21018;-71
2022/07/29 08:40:32;;;;;;;5.03;2.27;;;23.80;1.00;;;24.56;37.80;101274.69;5006281;28;21011;-72
2022/07/29 08:43:06;;;;;;;3.83;2.80;;;24.00;1.00;;;24.85;37.24;101266.47;5007090;28;20501;-71
2022/07/29 08:45:45;;;;;;;5.77;1.93;;;24.40;1.00;;;24.96;37.17;101268.09;5005423;28;20546;-72
2022/07/29 08:48:18;;;;;;;3.10;2.27;;;24.50;1.00;;;25.04;36.64;101261.91;5003646;28;20951;-71
2022/07/29 08:50:49;;;;;;;8.20;2.40;;;24.70;1.00;;;24.94;36.95;101267.53;5007849;28;20468;-71
2022/07/29 08:53:20;;;;;;;5.93;1.80;;;24.70;1.00;;;24.91;36.67;101259.81;5007721;28;20504;-71
2022/07/29 08:55:50;;;;;;;3.70;1.93;;;24.70;1.00;;;24.90;36.13;101274.78;5007314;28;20465;-72
2022/07/29 08:58:21;;;;;;;3.63;1.97;;;24.70;1.00;;;24.88;36.32;101271.47;5008732;28;20498;-71
2022/07/29 09:00:55;;;;;;;2.43;2.10;;;24.60;1.00;;;24.89;36.51;101264.81;5011901;28;20449;-71
2022/07/29 09:03:31;;;;;;;5.47;2.17;;;24.60;1.00;;;24.91;36.57;101259.81;5010827;28;20502;-71
2022/07/29 09:06:00;;;;;;;3.80;2.00;;;24.70;1.00;;;24.88;36.08;101260.41;5008392;28;20487;-71
2022/07/29 09:08:33;;;;;;;2.53;1.93;;;24.60;1.00;;;24.92;36.45;101267.03;5009737;28;20441;-70
2022/07/29 09:11:03;;;;;;;6.03;2.67;;;24.60;1.00;;;25.01;36.27;101270.81;5009043;28;20483;-71
2022/07/29 09:13:33;;;;;;;2.10;1.63;;;24.60;1.00;;;25.01;35.26;101265.28;5008105;28;20453;-71
2022/07/29 09:16:05;;;;;;;2.60;2.00;;;24.70;1.00;;;25.03;35.33;101271.34;5009536;28;20453;-70
2022/07/29 09:18:39;;;;;;;4.93;2.30;;;24.70;1.00;;;25.20;35.30;101265.38;5007718;28;20998;-71
2022/07/29 09:24:10;;;;;;;4.10;2.77;;;25.10;1.00;;;25.90;34.31;101258.31;5010545;28;20522;-70
2022/07/29 09:26:43;;;;;;;3.50;2.53;;;25.40;1.00;;;25.95;34.20;101259.06;5009420;28;20481;-70
2022/07/29 09:29:15;;;;;;;4.23;2.13;;;25.50;1.00;;;26.09;34.36;101259.19;5011210;28;20803;-71
2022/07/29 09:31:46;;;;;;;3.00;2.23;;;25.70;1.00;;;26.29;33.54;101263.66;5005609;28;20444;-71
2022/07/29 09:34:18;;;;;;;3.27;2.40;;;25.80;1.00;;;25.91;33.63;101259.94;5009639;28;20471;-71
2022/07/29 09:36:51;;;;;;;3.57;2.10;;;25.70;1.00;;;25.75;34.07;101259.31;5007716;28;20452;-71
2022/07/29 09:39:33;;;;;;;2.07;1.77;;;25.50;1.00;;;25.60;33.82;101265.03;5010358;28;20504;-72
2022/07/29 09:42:05;;;;;;;5.70;2.43;;;25.40;1.00;;;25.61;33.78;101263.09;5007816;28;21003;-71
2022/07/29 09:44:47;;;;;;;3.50;2.30;;;25.30;1.00;;;25.70;33.15;101256.63;5009101;28;20436;-71
2022/07/29 09:47:18;;;;;;;3.27;2.13;;;25.30;1.00;;;25.94;33.05;101253.84;5010861;28;20440;-72
2022/07/29 09:49:58;;;;;;;3.57;2.50;;;25.40;1.00;;;25.88;32.74;101246.69;5011520;28;20974;-72
2022/07/29 09:52:30;;;;;;;3.03;2.47;;;25.40;1.00;;;25.96;33.12;101254.34;5008730;28;20578;-72
2022/07/29 09:55:09;;;;;;;4.83;2.07;;;25.50;1.00;;;26.10;32.49;101244.19;5010495;28;20469;-71
2022/07/29 09:57:46;;;;;;;3.40;1.70;;;25.50;1.00;;;26.04;32.82;101239.84;5007911;28;20437;-72
2022/07/29 10:00:18;;;;;;;2.57;1.70;;;25.60;1.00;;;25.86;32.15;101248.91;5010955;28;20437;-73
2022/07/29 10:02:48;;;;;;;2.50;1.97;;;25.60;1.00;;;25.65;32.79;101239.22;5008254;28;20456;-71
2022/07/29 10:05:21;;;;;;;3.33;1.83;;;25.40;1.00;;;25.93;33.10;101246.63;5008887;28;20572;-71
2022/07/29 10:07:53;;;;;;;3.03;1.77;;;25.50;1.00;;;26.20;32.42;101254.31;5010426;28;20979;-72
2022/07/29 10:10:29;;;;;;;5.60;2.23;;;25.80;1.00;;;26.15;32.49;101252.44;5011599;28;20471;-71
2022/07/29 10:13:00;;;;;;;4.60;2.00;;;25.70;1.00;;;26.44;32.28;101245.97;5013083;28;20507;-71
2022/07/29 10:15:40;;;;;;;2.20;1.80;;;25.90;1.00;;;26.71;31.62;101243.34;5015127;28;20522;-72
2022/07/29 10:18:11;;;;;;;4.87;2.03;;;26.10;1.00;;;26.53;32.10;101244.19;5009888;28;20480;-72
2022/07/29 10:20:40;;;;;;;6.30;2.90;;;26.10;1.00;;;26.53;32.35;101242.22;5021375;28;20479;-72
2022/07/29 10:23:10;;;;;;;2.23;2.03;;;26.20;1.00;;;26.84;31.62;101237.03;5027393;28;20464;-72
2022/07/29 10:25:41;;;;;;;7.63;2.10;;;26.30;1.00;;;26.71;31.58;101218.38;5031572;28;20459;-72
2022/07/29 10:28:14;;;;;;;4.63;2.30;;;26.40;1.00;;;26.51;31.73;101233.38;5024460;28;20491;-71
2022/07/29 10:30:47;;;;;;;3.20;1.97;;;26.20;1.00;;;26.39;31.42;101233.81;5013853;28;20489;-72
2022/07/29 10:33:37;;;;;;;2.83;1.97;;;26.10;1.00;;;26.53;30.89;101236.66;5015175;28;20473;-72
2022/07/29 10:36:39;;;;;;;1.63;1.17;;;26.10;1.00;;;26.44;30.96;101226.53;5011488;28;20447;-72
2022/07/29 10:39:30;;;;;;;4.53;2.03;;;26.10;1.00;;;26.53;31.35;101224.75;5059745;22;20509;-71
2022/07/29 10:42:21;;;;;;;2.43;1.60;;;26.00;1.00;;;26.80;30.93;101231.25;5053947;28;20445;-72
2022/07/29 10:45:02;;;;;;;2.13;1.40;;;26.30;1.00;;;26.54;30.97;101223.63;5040553;28;20944;-71